sensor_id;sensor_type;location;lat;lon;timestamp;P1;durP1;ratioP1;P2;durP2;ratioP2
42682;SDS011;28293;50.930;3.464;2023-02-01T00:02:24;23.67;;;7.22;;
42682;SDS011;28293;50.930;3.464;2023-02-01T00:04:50;20.75;;;6.30;;
42682;SDS011;28293;50.930;3.464;2023-02-01T00:07:15;24.50;;;7.47;;
42682;SDS011;28293;50.930;3.464;2023-02-01T00:09:41;20.90;;;6.70;;
42682;SDS011;28293;50.930;3.464;2023-02-01T00:12:06;25.08;;;8.43;;
42682;SDS011;28293;50.930;3.464;2023-02-01T00:14:32;25.30;;;7.72;;
42682;SDS011;28293;50.930;3.464;2023-02-01T00:17:03;21.73;;;6.97;;
42682;SDS011;28293;50.930;3.464;2023-02-01T00:19:32;23.17;;;6.57;;
42682;SDS011;28293;50.930;3.464;2023-02-01T00:21:58;22.08;;;6.85;;
42682;SDS011;28293;50.930;3.464;2023-02-01T00:24:24;25.08;;;6.82;;
42682;SDS011;28293;50.930;3.464;2023-02-01T00:26:50;21.27;;;6.35;;
42682;SDS011;28293;50.930;3.464;2023-02-01T00:29:17;21.33;;;6.85;;
42682;SDS011;28293;50.930;3.464;2023-02-01T00:31:45;17.52;;;6.60;;
42682;SDS011;28293;50.930;3.464;2023-02-01T00:34:12;21.60;;;7.80;;
42682;SDS011;28293;50.930;3.464;2023-02-01T00:36:40;20.13;;;8.20;;
42682;SDS011;28293;50.930;3.464;2023-02-01T00:39:06;28.27;;;8.55;;
42682;SDS011;28293;50.930;3.464;2023-02-01T00:41:32;26.33;;;7.55;;
42682;SDS011;28293;50.930;3.464;2023-02-01T00:43:58;20.90;;;8.23;;
42682;SDS011;28293;50.930;3.464;2023-02-01T00:46:23;19.58;;;7.15;;
42682;SDS011;28293;50.930;3.464;2023-02-01T00:48:50;20.40;;;7.07;;
42682;SDS011;28293;50.930;3.464;2023-02-01T00:51:23;24.48;;;6.72;;
42682;SDS011;28293;50.930;3.464;2023-02-01T00:53:51;22.45;;;7.35;;
42682;SDS011;28293;50.930;3.464;2023-02-01T00:56:17;25.90;;;7.75;;
42682;SDS011;28293;50.930;3.464;2023-02-01T00:58:42;18.08;;;6.63;;
42682;SDS011;28293;50.930;3.464;2023-02-01T01:03:41;23.77;;;7.75;;
42682;SDS011;28293;50.930;3.464;2023-02-01T01:06:10;25.67;;;7.43;;
42682;SDS011;28293;50.930;3.464;2023-02-01T01:08:37;24.63;;;7.50;;
42682;SDS011;28293;50.930;3.464;2023-02-01T01:11:05;26.45;;;7.88;;
42682;SDS011;28293;50.930;3.464;2023-02-01T01:13:32;29.02;;;7.93;;
42682;SDS011;28293;50.930;3.464;2023-02-01T01:15:59;28.35;;;8.20;;
42682;SDS011;28293;50.930;3.464;2023-02-01T01:18:27;21.58;;;7.28;;
42682;SDS011;28293;50.930;3.464;2023-02-01T01:20:54;24.80;;;8.27;;
42682;SDS011;28293;50.930;3.464;2023-02-01T01:23:20;32.80;;;7.80;;
42682;SDS011;28293;50.930;3.464;2023-02-01T01:25:45;26.38;;;8.55;;
42682;SDS011;28293;50.930;3.464;2023-02-01T01:28:11;19.80;;;7.45;;
42682;SDS011;28293;50.930;3.464;2023-02-01T01:30:37;26.63;;;9.65;;
42682;SDS011;28293;50.930;3.464;2023-02-01T01:33:03;28.73;;;10.52;;
42682;SDS011;28293;50.930;3.464;2023-02-01T01:35:29;26.58;;;9.57;;
42682;SDS011;28293;50.930;3.464;2023-02-01T01:37:56;27.13;;;9.52;;
42682;SDS011;28293;50.930;3.464;2023-02-01T01:40:21;30.58;;;9.20;;
42682;SDS011;28293;50.930;3.464;2023-02-01T01:42:47;24.20;;;7.50;;
42682;SDS011;28293;50.930;3.464;2023-02-01T01:45:29;24.08;;;7.45;;
42682;SDS011;28293;50.930;3.464;2023-02-01T01:48:02;23.50;;;7.95;;
42682;SDS011;28293;50.930;3.464;2023-02-01T01:50:33;26.13;;;7.13;;
42682;SDS011;28293;50.930;3.464;2023-02-01T01:53:06;22.30;;;7.20;;
42682;SDS011;28293;50.930;3.464;2023-02-01T01:55:35;22.45;;;6.10;;
42682;SDS011;28293;50.930;3.464;2023-02-01T01:58:06;20.33;;;6.20;;
42682;SDS011;28293;50.930;3.464;2023-02-01T02:00:35;24.17;;;6.70;;
42682;SDS011;28293;50.930;3.464;2023-02-01T02:03:11;21.92;;;6.97;;
42682;SDS011;28293;50.930;3.464;2023-02-01T02:05:44;26.17;;;7.20;;
42682;SDS011;28293;50.930;3.464;2023-02-01T02:08:11;27.38;;;7.75;;
42682;SDS011;28293;50.930;3.464;2023-02-01T02:10:37;22.17;;;6.47;;
42682;SDS011;28293;50.930;3.464;2023-02-01T02:13:21;26.67;;;7.47;;
42682;SDS011;28293;50.930;3.464;2023-02-01T02:16:00;20.85;;;7.43;;
42682;SDS011;28293;50.930;3.464;2023-02-01T02:34:48;25.40;;;6.97;;
42682;SDS011;28293;50.930;3.464;2023-02-01T02:40:22;18.77;;;6.20;;
42682;SDS011;28293;50.930;3.464;2023-02-01T02:46:03;27.45;;;6.78;;
42682;SDS011;28293;50.930;3.464;2023-02-01T02:48:58;27.77;;;6.70;;
42682;SDS011;28293;50.930;3.464;2023-02-01T02:51:29;24.80;;;8.00;;
42682;SDS011;28293;50.930;3.464;2023-02-01T02:54:29;29.45;;;11.75;;
42682;SDS011;28293;50.930;3.464;2023-02-01T02:57:20;29.67;;;13.80;;
42682;SDS011;28293;50.930;3.464;2023-02-01T03:00:12;34.33;;;13.25;;
42682;SDS011;28293;50.930;3.464;2023-02-01T03:02:58;35.10;;;12.32;;
42682;SDS011;28293;50.930;3.464;2023-02-01T03:05:45;27.58;;;11.15;;
42682;SDS011;28293;50.930;3.464;2023-02-01T03:08:16;27.77;;;9.10;;
42682;SDS011;28293;50.930;3.464;2023-02-01T03:21:26;26.67;;;7.50;;
42682;SDS011;28293;50.930;3.464;2023-02-01T03:24:03;27.27;;;7.13;;
42682;SDS011;28293;50.930;3.464;2023-02-01T03:26:36;24.70;;;6.32;;
42682;SDS011;28293;50.930;3.464;2023-02-01T03:29:09;27.90;;;6.65;;
42682;SDS011;28293;50.930;3.464;2023-02-01T03:34:05;23.48;;;6.05;;
42682;SDS011;28293;50.930;3.464;2023-02-01T03:36:35;26.20;;;6.22;;
42682;SDS011;28293;50.930;3.464;2023-02-01T03:41:42;26.27;;;6.38;;
42682;SDS011;28293;50.930;3.464;2023-02-01T03:46:52;27.27;;;7.38;;
42682;SDS011;28293;50.930;3.464;2023-02-01T03:49:35;28.25;;;6.53;;
42682;SDS011;28293;50.930;3.464;2023-02-01T03:52:12;23.00;;;6.63;;
42682;SDS011;28293;50.930;3.464;2023-02-01T03:54:41;24.17;;;7.55;;
42682;SDS011;28293;50.930;3.464;2023-02-01T03:57:09;30.65;;;7.53;;
42682;SDS011;28293;50.930;3.464;2023-02-01T03:59:41;27.17;;;6.53;;
42682;SDS011;28293;50.930;3.464;2023-02-01T04:02:09;24.75;;;8.25;;
42682;SDS011;28293;50.930;3.464;2023-02-01T04:04:36;26.20;;;7.60;;
42682;SDS011;28293;50.930;3.464;2023-02-01T04:07:02;24.52;;;6.60;;
42682;SDS011;28293;50.930;3.464;2023-02-01T04:09:28;27.83;;;8.68;;
42682;SDS011;28293;50.930;3.464;2023-02-01T04:11:57;26.55;;;7.18;;
42682;SDS011;28293;50.930;3.464;2023-02-01T04:14:23;28.27;;;7.30;;
42682;SDS011;28293;50.930;3.464;2023-02-01T04:16:48;28.27;;;7.78;;
42682;SDS011;28293;50.930;3.464;2023-02-01T04:19:14;27.42;;;7.70;;
42682;SDS011;28293;50.930;3.464;2023-02-01T04:21:40;26.13;;;8.02;;
42682;SDS011;28293;50.930;3.464;2023-02-01T04:24:05;25.77;;;7.60;;
42682;SDS011;28293;50.930;3.464;2023-02-01T04:26:31;28.20;;;7.25;;
42682;SDS011;28293;50.930;3.464;2023-02-01T04:28:57;25.65;;;7.97;;
42682;SDS011;28293;50.930;3.464;2023-02-01T04:31:22;25.15;;;8.60;;
42682;SDS011;28293;50.930;3.464;2023-02-01T04:33:52;27.15;;;7.60;;
42682;SDS011;28293;50.930;3.464;2023-02-01T04:36:19;22.58;;;6.43;;
42682;SDS011;28293;50.930;3.464;2023-02-01T04:38:46;24.67;;;6.68;;
42682;SDS011;28293;50.930;3.464;2023-02-01T04:41:13;25.00;;;7.35;;
42682;SDS011;28293;50.930;3.464;2023-02-01T04:43:40;26.67;;;7.43;;
42682;SDS011;28293;50.930;3.464;2023-02-01T04:46:06;25.58;;;7.38;;
42682;SDS011;28293;50.930;3.464;2023-02-01T04:48:31;21.02;;;7.18;;
42682;SDS011;28293;50.930;3.464;2023-02-01T04:50:57;31.77;;;7.35;;
42682;SDS011;28293;50.930;3.464;2023-02-01T04:53:23;26.60;;;7.75;;
42682;SDS011;28293;50.930;3.464;2023-02-01T04:55:48;28.77;;;6.40;;
42682;SDS011;28293;50.930;3.464;2023-02-01T04:58:15;28.20;;;7.20;;
42682;SDS011;28293;50.930;3.464;2023-02-01T05:00:40;24.63;;;6.78;;
42682;SDS011;28293;50.930;3.464;2023-02-01T05:03:06;32.70;;;7.50;;
42682;SDS011;28293;50.930;3.464;2023-02-01T05:05:32;26.00;;;6.85;;
42682;SDS011;28293;50.930;3.464;2023-02-01T05:07:57;26.20;;;7.80;;
42682;SDS011;28293;50.930;3.464;2023-02-01T05:10:23;31.50;;;8.32;;
42682;SDS011;28293;50.930;3.464;2023-02-01T05:12:49;38.85;;;9.70;;
42682;SDS011;28293;50.930;3.464;2023-02-01T05:15:33;26.88;;;8.00;;
42682;SDS011;28293;50.930;3.464;2023-02-01T05:17:59;31.50;;;7.38;;
42682;SDS011;28293;50.930;3.464;2023-02-01T05:20:25;27.33;;;7.45;;
42682;SDS011;28293;50.930;3.464;2023-02-01T05:22:50;22.90;;;6.35;;
42682;SDS011;28293;50.930;3.464;2023-02-01T05:25:16;26.52;;;7.03;;
42682;SDS011;28293;50.930;3.464;2023-02-01T05:27:42;24.63;;;6.57;;
42682;SDS011;28293;50.930;3.464;2023-02-01T05:30:08;27.30;;;6.80;;
42682;SDS011;28293;50.930;3.464;2023-02-01T05:32:34;30.98;;;8.55;;
42682;SDS011;28293;50.930;3.464;2023-02-01T05:35:00;27.75;;;7.00;;
42682;SDS011;28293;50.930;3.464;2023-02-01T05:37:26;28.25;;;6.25;;
42682;SDS011;28293;50.930;3.464;2023-02-01T05:39:51;26.98;;;5.85;;
42682;SDS011;28293;50.930;3.464;2023-02-01T05:42:17;21.85;;;5.97;;
42682;SDS011;28293;50.930;3.464;2023-02-01T05:44:43;22.30;;;5.93;;
42682;SDS011;28293;50.930;3.464;2023-02-01T05:47:08;27.02;;;7.07;;
42682;SDS011;28293;50.930;3.464;2023-02-01T05:49:35;31.35;;;6.97;;
42682;SDS011;28293;50.930;3.464;2023-02-01T05:52:00;25.35;;;7.15;;
42682;SDS011;28293;50.930;3.464;2023-02-01T05:54:26;22.80;;;5.63;;
42682;SDS011;28293;50.930;3.464;2023-02-01T05:56:52;29.75;;;7.68;;
42682;SDS011;28293;50.930;3.464;2023-02-01T05:59:18;32.70;;;7.90;;
42682;SDS011;28293;50.930;3.464;2023-02-01T06:01:43;21.83;;;5.60;;
42682;SDS011;28293;50.930;3.464;2023-02-01T06:04:09;25.85;;;6.43;;
42682;SDS011;28293;50.930;3.464;2023-02-01T06:06:34;28.05;;;6.93;;
42682;SDS011;28293;50.930;3.464;2023-02-01T06:09:01;23.52;;;6.47;;
42682;SDS011;28293;50.930;3.464;2023-02-01T06:11:28;22.75;;;6.45;;
42682;SDS011;28293;50.930;3.464;2023-02-01T06:13:54;31.45;;;7.00;;
42682;SDS011;28293;50.930;3.464;2023-02-01T06:16:20;27.60;;;8.50;;
42682;SDS011;28293;50.930;3.464;2023-02-01T06:18:47;31.42;;;6.55;;
42682;SDS011;28293;50.930;3.464;2023-02-01T06:21:13;22.85;;;6.45;;
42682;SDS011;28293;50.930;3.464;2023-02-01T06:23:40;21.55;;;5.78;;
42682;SDS011;28293;50.930;3.464;2023-02-01T06:26:06;24.98;;;7.05;;
42682;SDS011;28293;50.930;3.464;2023-02-01T06:28:33;28.25;;;7.45;;
42682;SDS011;28293;50.930;3.464;2023-02-01T06:31:03;27.38;;;6.63;;
42682;SDS011;28293;50.930;3.464;2023-02-01T06:33:31;27.58;;;6.72;;
42682;SDS011;28293;50.930;3.464;2023-02-01T06:35:58;24.02;;;6.65;;
42682;SDS011;28293;50.930;3.464;2023-02-01T06:38:25;28.08;;;6.43;;
42682;SDS011;28293;50.930;3.464;2023-02-01T06:40:55;27.92;;;8.20;;
42682;SDS011;28293;50.930;3.464;2023-02-01T06:43:23;28.42;;;8.52;;
42682;SDS011;28293;50.930;3.464;2023-02-01T06:45:50;26.23;;;7.43;;
42682;SDS011;28293;50.930;3.464;2023-02-01T06:48:16;27.15;;;6.97;;
42682;SDS011;28293;50.930;3.464;2023-02-01T06:50:42;24.42;;;6.82;;
42682;SDS011;28293;50.930;3.464;2023-02-01T06:53:08;28.45;;;7.22;;
42682;SDS011;28293;50.930;3.464;2023-02-01T06:55:34;32.05;;;8.85;;
42682;SDS011;28293;50.930;3.464;2023-02-01T06:58:00;26.98;;;6.88;;
42682;SDS011;28293;50.930;3.464;2023-02-01T07:00:27;30.17;;;7.40;;
42682;SDS011;28293;50.930;3.464;2023-02-01T07:02:53;30.48;;;7.95;;
42682;SDS011;28293;50.930;3.464;2023-02-01T07:05:19;28.77;;;6.82;;
42682;SDS011;28293;50.930;3.464;2023-02-01T07:07:45;27.63;;;6.40;;
42682;SDS011;28293;50.930;3.464;2023-02-01T07:10:11;32.75;;;7.32;;
42682;SDS011;28293;50.930;3.464;2023-02-01T07:12:37;28.23;;;7.53;;
42682;SDS011;28293;50.930;3.464;2023-02-01T07:15:03;26.70;;;7.70;;
42682;SDS011;28293;50.930;3.464;2023-02-01T07:17:29;30.17;;;8.23;;
42682;SDS011;28293;50.930;3.464;2023-02-01T07:19:55;29.73;;;8.10;;
42682;SDS011;28293;50.930;3.464;2023-02-01T07:22:22;32.70;;;8.93;;
42682;SDS011;28293;50.930;3.464;2023-02-01T07:24:48;26.38;;;6.82;;
42682;SDS011;28293;50.930;3.464;2023-02-01T07:27:13;24.15;;;5.80;;
42682;SDS011;28293;50.930;3.464;2023-02-01T07:29:39;28.08;;;6.47;;
42682;SDS011;28293;50.930;3.464;2023-02-01T07:32:05;24.60;;;7.22;;
42682;SDS011;28293;50.930;3.464;2023-02-01T07:34:30;26.33;;;7.20;;
42682;SDS011;28293;50.930;3.464;2023-02-01T07:36:56;22.38;;;6.40;;
42682;SDS011;28293;50.930;3.464;2023-02-01T07:39:22;28.33;;;8.38;;
42682;SDS011;28293;50.930;3.464;2023-02-01T07:41:48;22.45;;;6.95;;
42682;SDS011;28293;50.930;3.464;2023-02-01T07:44:14;33.17;;;6.82;;
42682;SDS011;28293;50.930;3.464;2023-02-01T07:46:39;24.90;;;7.45;;
42682;SDS011;28293;50.930;3.464;2023-02-01T07:49:05;30.10;;;6.93;;
42682;SDS011;28293;50.930;3.464;2023-02-01T07:51:31;24.42;;;7.03;;
42682;SDS011;28293;50.930;3.464;2023-02-01T07:53:57;21.08;;;6.43;;
42682;SDS011;28293;50.930;3.464;2023-02-01T07:56:23;24.38;;;6.85;;
42682;SDS011;28293;50.930;3.464;2023-02-01T07:58:50;18.77;;;6.15;;
42682;SDS011;28293;50.930;3.464;2023-02-01T08:01:17;25.10;;;7.28;;
42682;SDS011;28293;50.930;3.464;2023-02-01T08:03:51;27.27;;;7.18;;
42682;SDS011;28293;50.930;3.464;2023-02-01T08:06:24;26.23;;;7.67;;
42682;SDS011;28293;50.930;3.464;2023-02-01T08:08:51;30.13;;;8.10;;
42682;SDS011;28293;50.930;3.464;2023-02-01T08:11:18;26.77;;;6.72;;
42682;SDS011;28293;50.930;3.464;2023-02-01T08:13:46;25.25;;;7.07;;
42682;SDS011;28293;50.930;3.464;2023-02-01T08:16:12;26.23;;;7.40;;
42682;SDS011;28293;50.930;3.464;2023-02-01T08:18:39;28.05;;;7.00;;
42682;SDS011;28293;50.930;3.464;2023-02-01T08:21:16;25.42;;;6.97;;
42682;SDS011;28293;50.930;3.464;2023-02-01T08:23:44;28.85;;;7.53;;
42682;SDS011;28293;50.930;3.464;2023-02-01T08:26:12;31.75;;;7.53;;
42682;SDS011;28293;50.930;3.464;2023-02-01T08:28:44;24.67;;;5.50;;
42682;SDS011;28293;50.930;3.464;2023-02-01T08:31:13;26.73;;;6.65;;
42682;SDS011;28293;50.930;3.464;2023-02-01T08:33:40;25.67;;;5.55;;
42682;SDS011;28293;50.930;3.464;2023-02-01T08:36:08;20.58;;;6.55;;
42682;SDS011;28293;50.930;3.464;2023-02-01T08:38:35;28.17;;;7.25;;
42682;SDS011;28293;50.930;3.464;2023-02-01T08:41:08;20.30;;;6.18;;
42682;SDS011;28293;50.930;3.464;2023-02-01T08:43:38;20.60;;;5.43;;
42682;SDS011;28293;50.930;3.464;2023-02-01T08:46:04;23.58;;;6.30;;
42682;SDS011;28293;50.930;3.464;2023-02-01T08:48:30;26.63;;;6.07;;
42682;SDS011;28293;50.930;3.464;2023-02-01T08:50:57;20.90;;;6.05;;
42682;SDS011;28293;50.930;3.464;2023-02-01T08:53:25;23.77;;;6.13;;
42682;SDS011;28293;50.930;3.464;2023-02-01T08:55:51;24.90;;;6.47;;
42682;SDS011;28293;50.930;3.464;2023-02-01T08:58:16;24.35;;;6.20;;
42682;SDS011;28293;50.930;3.464;2023-02-01T09:00:45;24.15;;;6.80;;
42682;SDS011;28293;50.930;3.464;2023-02-01T09:03:12;28.23;;;6.50;;
42682;SDS011;28293;50.930;3.464;2023-02-01T09:05:39;23.15;;;6.90;;
42682;SDS011;28293;50.930;3.464;2023-02-01T09:08:05;29.48;;;8.25;;
42682;SDS011;28293;50.930;3.464;2023-02-01T09:10:31;22.30;;;7.03;;
42682;SDS011;28293;50.930;3.464;2023-02-01T09:12:57;25.13;;;6.68;;
42682;SDS011;28293;50.930;3.464;2023-02-01T09:15:22;26.15;;;6.28;;
42682;SDS011;28293;50.930;3.464;2023-02-01T09:17:48;24.85;;;5.93;;
42682;SDS011;28293;50.930;3.464;2023-02-01T09:20:14;25.13;;;5.82;;
42682;SDS011;28293;50.930;3.464;2023-02-01T09:22:40;21.00;;;6.20;;
42682;SDS011;28293;50.930;3.464;2023-02-01T09:25:06;20.83;;;5.45;;
42682;SDS011;28293;50.930;3.464;2023-02-01T09:27:32;22.55;;;5.65;;
42682;SDS011;28293;50.930;3.464;2023-02-01T09:29:58;24.10;;;5.70;;
42682;SDS011;28293;50.930;3.464;2023-02-01T09:32:24;26.50;;;4.93;;
42682;SDS011;28293;50.930;3.464;2023-02-01T09:34:50;22.10;;;5.18;;
42682;SDS011;28293;50.930;3.464;2023-02-01T09:37:16;23.98;;;6.03;;
42682;SDS011;28293;50.930;3.464;2023-02-01T09:39:42;25.55;;;5.85;;
42682;SDS011;28293;50.930;3.464;2023-02-01T09:42:24;26.45;;;6.38;;
42682;SDS011;28293;50.930;3.464;2023-02-01T09:47:48;23.25;;;6.50;;
42682;SDS011;28293;50.930;3.464;2023-02-01T09:50:21;23.70;;;6.00;;
42682;SDS011;28293;50.930;3.464;2023-02-01T09:55:59;16.95;;;6.40;;
42682;SDS011;28293;50.930;3.464;2023-02-01T09:58:45;20.73;;;5.13;;
42682;SDS011;28293;50.930;3.464;2023-02-01T10:01:20;23.67;;;4.97;;
42682;SDS011;28293;50.930;3.464;2023-02-01T10:03:48;23.42;;;6.15;;
42682;SDS011;28293;50.930;3.464;2023-02-01T10:09:11;20.10;;;5.20;;
42682;SDS011;28293;50.930;3.464;2023-02-01T10:17:47;16.15;;;3.83;;
42682;SDS011;28293;50.930;3.464;2023-02-01T10:22:54;18.05;;;5.30;;
42682;SDS011;28293;50.930;3.464;2023-02-01T10:26:08;21.02;;;5.22;;
42682;SDS011;28293;50.930;3.464;2023-02-01T10:28:20;17.08;;;3.72;;
42682;SDS011;28293;50.930;3.464;2023-02-01T10:30:49;16.48;;;3.95;;
42682;SDS011;28293;50.930;3.464;2023-02-01T10:35:58;17.40;;;3.95;;
42682;SDS011;28293;50.930;3.464;2023-02-01T10:38:32;22.23;;;4.65;;
42682;SDS011;28293;50.930;3.464;2023-02-01T10:41:02;15.60;;;3.88;;
42682;SDS011;28293;50.930;3.464;2023-02-01T10:43:36;15.65;;;4.43;;
42682;SDS011;28293;50.930;3.464;2023-02-01T10:46:04;19.63;;;4.43;;
42682;SDS011;28293;50.930;3.464;2023-02-01T10:48:31;16.83;;;4.80;;
42682;SDS011;28293;50.930;3.464;2023-02-01T10:51:02;18.25;;;4.03;;
42682;SDS011;28293;50.930;3.464;2023-02-01T10:53:33;20.55;;;4.57;;
42682;SDS011;28293;50.930;3.464;2023-02-01T10:56:10;18.08;;;3.95;;
42682;SDS011;28293;50.930;3.464;2023-02-01T10:58:44;17.23;;;4.60;;
42682;SDS011;28293;50.930;3.464;2023-02-01T11:03:57;13.57;;;3.40;;
42682;SDS011;28293;50.930;3.464;2023-02-01T11:11:56;17.58;;;3.70;;
42682;SDS011;28293;50.930;3.464;2023-02-01T11:19:22;13.98;;;3.70;;
42682;SDS011;28293;50.930;3.464;2023-02-01T11:21:52;16.95;;;3.58;;
42682;SDS011;28293;50.930;3.464;2023-02-01T11:26:50;17.83;;;3.72;;
42682;SDS011;28293;50.930;3.464;2023-02-01T11:29:19;24.58;;;4.80;;
42682;SDS011;28293;50.930;3.464;2023-02-01T11:31:49;16.77;;;4.15;;
42682;SDS011;28293;50.930;3.464;2023-02-01T11:34:16;17.95;;;4.15;;
42682;SDS011;28293;50.930;3.464;2023-02-01T11:36:46;13.30;;;4.15;;
42682;SDS011;28293;50.930;3.464;2023-02-01T11:42:00;15.77;;;3.45;;
42682;SDS011;28293;50.930;3.464;2023-02-01T11:44:32;17.95;;;3.70;;
42682;SDS011;28293;50.930;3.464;2023-02-01T11:47:21;12.93;;;3.15;;
42682;SDS011;28293;50.930;3.464;2023-02-01T11:49:47;13.55;;;3.17;;
42682;SDS011;28293;50.930;3.464;2023-02-01T11:52:24;12.00;;;3.35;;
42682;SDS011;28293;50.930;3.464;2023-02-01T11:57:55;14.38;;;3.28;;
42682;SDS011;28293;50.930;3.464;2023-02-01T12:22:18;13.48;;;3.35;;
42682;SDS011;28293;50.930;3.464;2023-02-01T12:34:20;17.05;;;3.85;;
42682;SDS011;28293;50.930;3.464;2023-02-01T12:36:50;12.75;;;2.90;;
42682;SDS011;28293;50.930;3.464;2023-02-01T12:42:15;13.90;;;3.25;;
42682;SDS011;28293;50.930;3.464;2023-02-01T12:44:53;15.13;;;3.15;;
42682;SDS011;28293;50.930;3.464;2023-02-01T12:50:19;16.15;;;3.28;;
42682;SDS011;28293;50.930;3.464;2023-02-01T12:52:52;13.32;;;3.13;;
42682;SDS011;28293;50.930;3.464;2023-02-01T12:55:28;11.05;;;2.63;;
42682;SDS011;28293;50.930;3.464;2023-02-01T12:58:15;12.93;;;3.08;;
42682;SDS011;28293;50.930;3.464;2023-02-01T13:01:02;14.82;;;3.28;;
42682;SDS011;28293;50.930;3.464;2023-02-01T13:11:52;13.45;;;3.35;;
42682;SDS011;28293;50.930;3.464;2023-02-01T13:14:25;17.10;;;3.25;;
42682;SDS011;28293;50.930;3.464;2023-02-01T13:17:03;11.93;;;3.40;;
42682;SDS011;28293;50.930;3.464;2023-02-01T13:19:33;15.73;;;3.53;;
42682;SDS011;28293;50.930;3.464;2023-02-01T13:24:57;10.82;;;2.70;;
42682;SDS011;28293;50.930;3.464;2023-02-01T13:27:28;17.17;;;3.20;;
42682;SDS011;28293;50.930;3.464;2023-02-01T13:40:49;16.08;;;3.67;;
42682;SDS011;28293;50.930;3.464;2023-02-01T13:43:38;12.13;;;3.35;;
42682;SDS011;28293;50.930;3.464;2023-02-01T13:46:07;13.63;;;3.72;;
42682;SDS011;28293;50.930;3.464;2023-02-01T13:49:01;15.20;;;3.75;;
42682;SDS011;28293;50.930;3.464;2023-02-01T13:51:34;11.50;;;3.30;;
42682;SDS011;28293;50.930;3.464;2023-02-01T13:54:05;15.13;;;3.88;;
42682;SDS011;28293;50.930;3.464;2023-02-01T13:56:39;12.32;;;2.75;;
42682;SDS011;28293;50.930;3.464;2023-02-01T14:05:03;14.48;;;3.42;;
42682;SDS011;28293;50.930;3.464;2023-02-01T14:07:36;17.27;;;4.03;;
42682;SDS011;28293;50.930;3.464;2023-02-01T14:11:04;18.30;;;3.60;;
42682;SDS011;28293;50.930;3.464;2023-02-01T14:13:29;16.67;;;3.60;;
42682;SDS011;28293;50.930;3.464;2023-02-01T14:21:13;17.08;;;4.20;;
42682;SDS011;28293;50.930;3.464;2023-02-01T14:26:19;14.98;;;3.50;;
42682;SDS011;28293;50.930;3.464;2023-02-01T14:28:58;20.25;;;3.88;;
42682;SDS011;28293;50.930;3.464;2023-02-01T14:36:54;20.35;;;4.47;;
42682;SDS011;28293;50.930;3.464;2023-02-01T14:39:30;18.30;;;4.38;;
42682;SDS011;28293;50.930;3.464;2023-02-01T14:42:01;15.25;;;3.65;;
42682;SDS011;28293;50.930;3.464;2023-02-01T14:44:30;15.57;;;3.72;;
42682;SDS011;28293;50.930;3.464;2023-02-01T14:47:09;13.88;;;3.72;;
42682;SDS011;28293;50.930;3.464;2023-02-01T14:52:20;14.75;;;4.63;;
42682;SDS011;28293;50.930;3.464;2023-02-01T14:54:51;18.38;;;3.80;;
42682;SDS011;28293;50.930;3.464;2023-02-01T14:57:19;15.95;;;4.13;;
42682;SDS011;28293;50.930;3.464;2023-02-01T14:59:47;18.00;;;4.10;;
42682;SDS011;28293;50.930;3.464;2023-02-01T15:02:21;15.35;;;3.50;;
42682;SDS011;28293;50.930;3.464;2023-02-01T15:04:54;18.40;;;3.55;;
42682;SDS011;28293;50.930;3.464;2023-02-01T15:07:20;13.20;;;4.40;;
42682;SDS011;28293;50.930;3.464;2023-02-01T15:09:49;16.80;;;4.15;;
42682;SDS011;28293;50.930;3.464;2023-02-01T15:12:16;22.85;;;5.85;;
42682;SDS011;28293;50.930;3.464;2023-02-01T15:15:02;24.27;;;4.93;;
42682;SDS011;28293;50.930;3.464;2023-02-01T15:17:30;19.73;;;4.40;;
42682;SDS011;28293;50.930;3.464;2023-02-01T15:20:00;20.40;;;4.95;;
42682;SDS011;28293;50.930;3.464;2023-02-01T15:22:28;18.60;;;4.20;;
42682;SDS011;28293;50.930;3.464;2023-02-01T15:24:56;16.27;;;4.35;;
42682;SDS011;28293;50.930;3.464;2023-02-01T15:27:24;21.23;;;5.28;;
42682;SDS011;28293;50.930;3.464;2023-02-01T15:29:51;16.77;;;4.10;;
42682;SDS011;28293;50.930;3.464;2023-02-01T15:32:29;17.88;;;4.43;;
42682;SDS011;28293;50.930;3.464;2023-02-01T15:34:56;21.50;;;5.45;;
42682;SDS011;28293;50.930;3.464;2023-02-01T15:37:23;22.77;;;5.03;;
42682;SDS011;28293;50.930;3.464;2023-02-01T15:42:37;17.20;;;5.00;;
42682;SDS011;28293;50.930;3.464;2023-02-01T15:45:19;23.15;;;5.00;;
42682;SDS011;28293;50.930;3.464;2023-02-01T15:47:54;17.15;;;4.95;;
42682;SDS011;28293;50.930;3.464;2023-02-01T15:50:21;18.33;;;4.60;;
42682;SDS011;28293;50.930;3.464;2023-02-01T15:52:48;20.52;;;5.93;;
42682;SDS011;28293;50.930;3.464;2023-02-01T15:55:23;20.25;;;5.00;;
42682;SDS011;28293;50.930;3.464;2023-02-01T15:58:00;23.27;;;4.90;;
42682;SDS011;28293;50.930;3.464;2023-02-01T16:00:44;22.98;;;5.85;;
42682;SDS011;28293;50.930;3.464;2023-02-01T16:08:55;18.88;;;4.63;;
42682;SDS011;28293;50.930;3.464;2023-02-01T16:11:29;27.15;;;6.43;;
42682;SDS011;28293;50.930;3.464;2023-02-01T16:13:56;24.13;;;6.05;;
42682;SDS011;28293;50.930;3.464;2023-02-01T16:16:23;23.10;;;5.88;;
42682;SDS011;28293;50.930;3.464;2023-02-01T16:18:49;23.15;;;5.13;;
42682;SDS011;28293;50.930;3.464;2023-02-01T16:21:14;19.73;;;5.53;;
42682;SDS011;28293;50.930;3.464;2023-02-01T16:23:40;25.88;;;6.05;;
42682;SDS011;28293;50.930;3.464;2023-02-01T16:26:06;25.35;;;5.53;;
42682;SDS011;28293;50.930;3.464;2023-02-01T16:28:32;21.27;;;5.90;;
42682;SDS011;28293;50.930;3.464;2023-02-01T16:30:58;21.55;;;6.10;;
42682;SDS011;28293;50.930;3.464;2023-02-01T16:33:25;24.35;;;5.82;;
42682;SDS011;28293;50.930;3.464;2023-02-01T16:35:51;24.33;;;5.72;;
42682;SDS011;28293;50.930;3.464;2023-02-01T16:38:22;26.80;;;6.20;;
42682;SDS011;28293;50.930;3.464;2023-02-01T16:40:48;21.63;;;6.00;;
42682;SDS011;28293;50.930;3.464;2023-02-01T16:43:16;27.58;;;6.13;;
42682;SDS011;28293;50.930;3.464;2023-02-01T16:45:49;31.60;;;6.57;;
42682;SDS011;28293;50.930;3.464;2023-02-01T16:48:51;21.60;;;5.57;;
42682;SDS011;28293;50.930;3.464;2023-02-01T16:51:14;23.48;;;5.28;;
42682;SDS011;28293;50.930;3.464;2023-02-01T16:53:42;25.80;;;6.13;;
42682;SDS011;28293;50.930;3.464;2023-02-01T16:56:13;29.95;;;7.05;;
42682;SDS011;28293;50.930;3.464;2023-02-01T16:58:50;25.05;;;7.10;;
42682;SDS011;28293;50.930;3.464;2023-02-01T17:01:16;20.95;;;6.45;;
42682;SDS011;28293;50.930;3.464;2023-02-01T17:03:43;20.67;;;6.97;;
42682;SDS011;28293;50.930;3.464;2023-02-01T17:06:11;29.60;;;7.50;;
42682;SDS011;28293;50.930;3.464;2023-02-01T17:08:42;24.35;;;5.65;;
42682;SDS011;28293;50.930;3.464;2023-02-01T17:11:14;33.05;;;6.03;;
42682;SDS011;28293;50.930;3.464;2023-02-01T17:13:39;30.83;;;6.40;;
42682;SDS011;28293;50.930;3.464;2023-02-01T17:18:44;26.58;;;6.70;;
42682;SDS011;28293;50.930;3.464;2023-02-01T17:21:14;32.67;;;7.40;;
42682;SDS011;28293;50.930;3.464;2023-02-01T17:23:39;28.15;;;7.28;;
42682;SDS011;28293;50.930;3.464;2023-02-01T17:26:08;23.85;;;6.68;;
42682;SDS011;28293;50.930;3.464;2023-02-01T17:28:34;27.58;;;7.88;;
42682;SDS011;28293;50.930;3.464;2023-02-01T17:31:00;25.67;;;9.20;;
42682;SDS011;28293;50.930;3.464;2023-02-01T17:35:58;25.75;;;7.10;;
42682;SDS011;28293;50.930;3.464;2023-02-01T17:38:24;24.70;;;6.93;;
42682;SDS011;28293;50.930;3.464;2023-02-01T17:40:50;23.98;;;5.75;;
42682;SDS011;28293;50.930;3.464;2023-02-01T17:43:20;27.55;;;6.57;;
42682;SDS011;28293;50.930;3.464;2023-02-01T17:46:01;25.73;;;5.68;;
42682;SDS011;28293;50.930;3.464;2023-02-01T17:48:28;26.50;;;6.38;;